createdAt,value
2023-02-14T00:01:10.706Z,5.83
2023-02-14T00:06:14.248Z,5.91
2023-02-14T00:11:15.699Z,6.05
2023-02-14T00:16:17.207Z,6.03
2023-02-14T00:21:18.749Z,5.90
2023-02-14T00:26:20.336Z,5.98
2023-02-14T00:31:22.716Z,5.93
2023-02-14T00:36:24.359Z,5.81
2023-02-14T00:41:25.894Z,5.15
2023-02-14T00:46:27.958Z,5.20
2023-02-14T00:51:30.550Z,5.18
2023-02-14T00:56:32.396Z,5.15
2023-02-14T01:01:34.018Z,5.39
2023-02-14T01:06:37.826Z,5.35
2023-02-14T01:11:39.407Z,5.43
2023-02-14T01:16:41.025Z,5.34
2023-02-14T01:21:42.566Z,5.24
2023-02-14T01:26:44.086Z,5.28
2023-02-14T01:31:45.624Z,5.24
2023-02-14T01:36:47.086Z,5.24
2023-02-14T01:41:48.861Z,5.41
2023-02-14T01:46:51.071Z,5.49
2023-02-14T01:51:57.177Z,5.22
2023-02-14T01:57:02.355Z,5.18
2023-02-14T02:02:05.295Z,5.05
2023-02-14T02:07:11.646Z,5.13
2023-02-14T02:12:13.398Z,5.19
2023-02-14T02:17:22.432Z,5.18
2023-02-14T02:22:41.930Z,5.26
2023-02-14T02:28:20.707Z,5.13
2023-02-14T02:33:42.943Z,5.11
2023-02-14T02:39:12.008Z,5.01
2023-02-14T02:44:44.069Z,4.90
2023-02-14T02:50:13.406Z,4.95
2023-02-14T02:55:56.757Z,5.02
2023-02-14T03:01:06.985Z,4.89
2023-02-14T03:06:08.540Z,4.81
2023-02-14T03:11:12.335Z,4.59
2023-02-14T03:16:35.861Z,4.71
2023-02-14T03:22:00.529Z,4.72
2023-02-14T03:27:22.025Z,4.80
2023-02-14T03:32:45.479Z,4.69
2023-02-14T03:37:57.253Z,4.84
2023-02-14T03:43:06.549Z,4.70
2023-02-14T03:48:12.905Z,4.46
2023-02-14T03:53:20.332Z,4.41
2023-02-14T03:58:30.871Z,4.53
2023-02-14T04:03:34.821Z,4.59
2023-02-14T04:08:36.283Z,4.45
2023-02-14T04:13:38.549Z,4.44
2023-02-14T04:18:39.991Z,4.27
2023-02-14T04:23:41.622Z,4.31
2023-02-14T04:28:43.064Z,4.22
2023-02-14T04:33:44.578Z,4.09
2023-02-14T04:38:46.023Z,4.16
2023-02-14T04:43:47.504Z,4.14
2023-02-14T04:48:49.058Z,4.26
2023-02-14T04:53:50.582Z,4.33
2023-02-14T04:58:52.041Z,4.26
2023-02-14T05:03:53.508Z,4.16
2023-02-14T05:08:55.907Z,4.01
2023-02-14T05:13:57.448Z,4.02
2023-02-14T05:18:58.901Z,4.05
2023-02-14T05:24:01.139Z,4.19
2023-02-14T05:29:02.664Z,4.19
2023-02-14T05:34:04.134Z,4.00
2023-02-14T05:39:05.750Z,3.98
2023-02-14T05:44:07.452Z,4.07
2023-02-14T05:49:08.942Z,3.92
2023-02-14T05:54:11.135Z,4.02
2023-02-14T05:59:12.723Z,3.72
2023-02-14T06:04:14.250Z,3.83
2023-02-14T06:09:15.909Z,3.79
2023-02-14T06:14:17.556Z,3.62
2023-02-14T06:19:19.136Z,3.86
2023-02-14T06:24:20.632Z,3.69
2023-02-14T06:29:22.162Z,3.86
2023-02-14T06:34:23.624Z,3.77
2023-02-14T06:39:25.080Z,3.90
2023-02-14T06:44:26.650Z,4.00
2023-02-14T06:49:28.161Z,3.96
2023-02-14T06:54:29.706Z,3.71
2023-02-14T06:59:31.219Z,3.69
2023-02-14T07:04:32.755Z,3.80
2023-02-14T07:09:34.254Z,3.83
2023-02-14T07:14:35.805Z,3.77
2023-02-14T07:19:37.260Z,3.81
2023-02-14T07:24:38.711Z,3.80
2023-02-14T07:29:40.263Z,3.81
2023-02-14T07:34:41.780Z,3.76
2023-02-14T07:39:44.344Z,3.85
2023-02-14T07:44:46.890Z,3.89
2023-02-14T07:49:48.311Z,3.79
2023-02-14T07:54:49.850Z,3.57
2023-02-14T07:59:51.366Z,3.57
2023-02-14T08:04:52.962Z,3.62
2023-02-14T08:09:54.522Z,3.65
2023-02-14T08:14:56.022Z,3.76
2023-02-14T08:19:57.753Z,3.91
2023-02-14T08:24:59.201Z,4.02
2023-02-14T08:30:00.794Z,4.04
2023-02-14T08:35:02.356Z,4.10
2023-02-14T08:40:04.186Z,4.19
2023-02-14T08:45:05.884Z,4.22
2023-02-14T08:50:13.226Z,4.16
2023-02-14T08:55:14.806Z,4.07
2023-02-14T09:00:17.102Z,4.17
2023-02-14T09:05:19.590Z,4.36
2023-02-14T09:10:21.065Z,4.39
2023-02-14T09:15:22.593Z,4.36
2023-02-14T09:20:24.206Z,4.58
2023-02-14T09:25:25.691Z,4.65
2023-02-14T09:30:27.414Z,4.67
2023-02-14T09:35:28.970Z,4.57
2023-02-14T09:40:32.432Z,4.61
2023-02-14T09:45:34.762Z,4.81
2023-02-14T09:50:48.455Z,4.91
2023-02-14T09:56:14.518Z,4.88
2023-02-14T10:01:23.549Z,4.87
2023-02-14T10:06:50.381Z,4.99
2023-02-14T10:11:52.991Z,5.06
2023-02-14T10:17:05.884Z,5.24
2023-02-14T10:22:13.827Z,5.35
2023-02-14T10:27:32.758Z,5.54
2023-02-14T10:32:49.910Z,5.58
2023-02-14T10:38:15.622Z,5.74
2023-02-14T10:43:37.065Z,5.80
2023-02-14T10:48:57.096Z,5.87
2023-02-14T10:54:18.511Z,5.96
2023-02-14T10:59:35.450Z,6.12
2023-02-14T11:04:37.826Z,6.19
2023-02-14T11:09:39.354Z,6.39
2023-02-14T11:14:41.028Z,6.27
2023-02-14T11:20:00.678Z,6.45
2023-02-14T11:25:17.688Z,6.51
2023-02-14T11:30:34.741Z,6.68
2023-02-14T11:35:37.823Z,6.38
2023-02-14T11:40:40.267Z,6.24
2023-02-14T11:45:44.008Z,6.31
2023-02-14T11:51:11.025Z,6.43
2023-02-14T11:56:14.289Z,6.53
2023-02-14T12:01:25.888Z,6.71
2023-02-14T12:06:33.652Z,6.82
2023-02-14T12:11:35.192Z,6.95
2023-02-14T12:16:47.480Z,7.14
2023-02-14T12:21:58.995Z,7.20
2023-02-14T12:27:16.192Z,7.43
2023-02-14T12:32:20.968Z,7.70
2023-02-14T12:37:50.837Z,7.68
2023-02-14T12:43:10.607Z,7.67
2023-02-14T12:48:49.408Z,8.04
2023-02-14T12:54:20.426Z,10.19
2023-02-14T12:59:48.709Z,13.68
2023-02-14T13:04:53.050Z,15.54
2023-02-14T13:10:08.824Z,15.20
2023-02-14T13:15:36.708Z,15.30
2023-02-14T13:20:50.576Z,16.51
2023-02-14T13:25:59.320Z,16.43
2023-02-14T13:31:01.135Z,16.47
2023-02-14T13:36:12.445Z,16.33
2023-02-14T13:41:15.585Z,16.08
2023-02-14T13:46:21.267Z,15.75
2023-02-14T13:51:44.010Z,15.34
2023-02-14T13:56:45.546Z,14.60
2023-02-14T14:01:47.064Z,14.17
2023-02-14T14:07:03.529Z,13.67
2023-02-14T14:12:27.577Z,13.48
2023-02-14T14:17:29.116Z,13.32
2023-02-14T14:22:30.881Z,13.32
2023-02-14T14:27:35.708Z,13.04
2023-02-14T14:32:38.443Z,13.00
2023-02-14T14:37:48.832Z,12.94
2023-02-14T14:42:50.780Z,12.90
2023-02-14T14:47:55.058Z,12.84
2023-02-14T14:53:02.054Z,12.62
2023-02-14T14:58:25.852Z,12.35
2023-02-14T15:03:28.967Z,12.22
2023-02-14T15:08:31.418Z,12.18
2023-02-14T15:13:51.141Z,12.07
2023-02-14T15:18:57.338Z,12.03
2023-02-14T15:23:59.020Z,11.99
2023-02-14T15:29:04.299Z,12.00
2023-02-14T15:34:06.679Z,11.91
2023-02-14T15:39:10.902Z,11.71
2023-02-14T15:44:24.225Z,11.44
2023-02-14T15:49:33.725Z,11.23
2023-02-14T15:54:47.660Z,11.21
2023-02-14T15:59:49.740Z,10.98
2023-02-14T16:04:51.337Z,10.82
2023-02-14T16:10:23.841Z,10.72
2023-02-14T16:15:28.521Z,10.30
2023-02-14T16:20:36.134Z,10.11
2023-02-14T16:25:37.790Z,9.78
2023-02-14T16:30:40.738Z,9.08
2023-02-14T16:35:42.335Z,8.83
2023-02-14T16:40:46.739Z,8.56
2023-02-14T16:45:48.250Z,8.20
2023-02-14T16:50:49.756Z,8.01
2023-02-14T16:55:53.835Z,7.83
2023-02-14T17:00:55.351Z,7.39
2023-02-14T17:05:58.267Z,7.09
2023-02-14T17:11:00.427Z,6.88
2023-02-14T17:16:04.645Z,6.77
2023-02-14T17:21:06.131Z,6.83
2023-02-14T17:26:07.575Z,6.47
2023-02-14T17:31:09.178Z,6.32
2023-02-14T17:36:12.756Z,6.29
2023-02-14T17:41:17.022Z,6.33
2023-02-14T17:46:19.294Z,6.20
2023-02-14T17:51:21.239Z,6.19
2023-02-14T17:56:25.597Z,6.18
2023-02-14T18:01:29.681Z,6.46
2023-02-14T18:06:31.708Z,6.31
2023-02-14T18:11:33.270Z,6.13
2023-02-14T18:16:37.838Z,5.81
2023-02-14T18:21:39.284Z,5.69
2023-02-14T18:26:41.557Z,5.75
2023-02-14T18:31:44.647Z,5.69
2023-02-14T18:36:46.250Z,5.62
2023-02-14T18:41:47.745Z,5.48
2023-02-14T18:46:49.240Z,5.43
2023-02-14T18:51:50.745Z,5.40
2023-02-14T18:56:52.236Z,5.36
2023-02-14T19:01:53.707Z,5.31
2023-02-14T19:06:55.147Z,5.31
2023-02-14T19:11:56.665Z,5.29
2023-02-14T19:16:58.157Z,5.36
2023-02-14T19:22:00.439Z,5.40
2023-02-14T19:27:02.123Z,5.37
2023-02-14T19:32:06.132Z,5.20
2023-02-14T19:37:07.722Z,5.00
2023-02-14T19:42:09.243Z,4.93
2023-02-14T19:47:25.608Z,4.96
2023-02-14T19:52:30.526Z,5.07
2023-02-14T19:57:32.033Z,4.86
2023-02-14T20:02:33.561Z,4.76
2023-02-14T20:07:35.071Z,4.61
2023-02-14T20:12:36.994Z,4.66
2023-02-14T20:17:38.664Z,4.49
2023-02-14T20:22:40.898Z,4.52
2023-02-14T20:27:42.350Z,4.42
2023-02-14T20:32:43.776Z,4.55
2023-02-14T20:37:45.226Z,4.46
2023-02-14T20:42:49.273Z,4.29
2023-02-14T20:47:50.737Z,4.20
2023-02-14T20:52:52.262Z,4.15
2023-02-14T20:57:54.428Z,4.12
2023-02-14T21:02:56.930Z,4.13
2023-02-14T21:07:58.420Z,4.07
2023-02-14T21:12:59.945Z,4.08
2023-02-14T21:18:01.422Z,4.05
2023-02-14T21:23:02.867Z,3.97
2023-02-14T21:28:04.395Z,4.03
2023-02-14T21:33:05.905Z,3.96
2023-02-14T21:38:07.404Z,4.00
2023-02-14T21:43:08.847Z,3.86
2023-02-14T21:48:10.279Z,3.82
2023-02-14T21:53:11.708Z,3.80
2023-02-14T21:58:13.225Z,3.86
2023-02-14T22:03:14.747Z,3.78
2023-02-14T22:08:16.310Z,3.60
2023-02-14T22:13:17.838Z,3.61
2023-02-14T22:18:19.374Z,3.67
2023-02-14T22:23:20.831Z,3.50
2023-02-14T22:28:22.503Z,3.39
2023-02-14T22:33:24.058Z,3.28
2023-02-14T22:38:25.931Z,3.22
2023-02-14T22:43:27.388Z,3.17
2023-02-14T22:48:32.748Z,3.18
2023-02-14T22:53:34.614Z,3.04
2023-02-14T22:58:36.070Z,3.03
2023-02-14T23:03:37.582Z,3.13
2023-02-14T23:08:40.817Z,3.17
2023-02-14T23:13:42.832Z,3.18
2023-02-14T23:18:44.335Z,3.23
2023-02-14T23:23:45.871Z,3.10
2023-02-14T23:28:47.416Z,3.15
2023-02-14T23:33:51.872Z,3.07
2023-02-14T23:38:53.354Z,3.04
2023-02-14T23:43:54.816Z,2.90
2023-02-14T23:48:56.317Z,2.96
2023-02-14T23:53:57.907Z,2.81
2023-02-14T23:58:59.351Z,2.75
